Sara — WDI5167 — position and weather

sailwx.info

Track history (hours):
 
Tides and Currents Weather Stations Pressure Air Temp Water Temp Dewpoint Dewpoint Depression Visibility Wind Speed Wind Dir Waves Ship Positions

Sara

Owner: Miami River Towing Company Inc., Miami, FL. More information available from US FCC via Universal Licensing System and Coast Guard Vessel Documentation Center.

Last reported at 2017-Nov-19 17:29 UTC. Time now 2017-Nov-21 02:46 UTC.
Position N 25°48' W 080°15'.

Length 16 m; draft 2 m.

Type: Towing. MMSI: 367705810.

Date/timePositionNaut miles runAvg speedWind from/ knotsBaromVisibWave heightAir tempDewpointWater temp
2017-Nov-19 17:29N 25°48' W 080°15'2 4.3
2017-Nov-19 17:00N 25°47' W 080°13'2 3.8
2017-Nov-19 16:30N 25°46' W 080°11'1 2.3
2017-Nov-19 16:01N 25°46' W 080°12'1 2.8
2017-Nov-19 15:31N 25°47' W 080°13'1 2.6
2017-Nov-19 15:01N 25°48' W 080°14'0 0.8
2017-Nov-19 14:31N 25°48' W 080°15'0 0.1
2017-Nov-19 14:00N 25°48' W 080°15'0 0.0
2017-Nov-19 02:13N 25°48' W 080°15'0 0.6
2017-Nov-19 02:00N 25°48' W 080°15'1 1.5
2017-Nov-19 01:30N 25°47' W 080°14'1 2.8
2017-Nov-19 01:00N 25°47' W 080°13'1 2.3
2017-Nov-19 00:31N 25°46' W 080°11'1 2.1
2017-Nov-19 00:01N 25°46' W 080°10'2 4.7
2017-Nov-18 23:31N 25°47' W 080°13'2 3.9
2017-Nov-18 23:00N 25°48' W 080°15'0 1.0
2017-Nov-18 22:30N 25°48' W 080°14'1 2.8
2017-Nov-18 22:00N 25°47' W 080°13'1 2.5
2017-Nov-18 21:30N 25°46' W 080°12'1 2.5
2017-Nov-18 21:00N 25°46' W 080°11'0 0.2
2017-Nov-18 20:30N 25°46' W 080°10'0 0.0
2017-Nov-18 20:01N 25°46' W 080°10'0 0.0
2017-Nov-18 19:31N 25°46' W 080°10'0 0.0
2017-Nov-18 19:01N 25°46' W 080°10'0 0.0
2017-Nov-18 18:31N 25°46' W 080°10'0 0.5
2017-Nov-18 18:01N 25°46' W 080°11'1 2.2
2017-Nov-18 17:30N 25°46' W 080°12'1 2.5
2017-Nov-18 17:01N 25°47' W 080°13'1 2.6
2017-Nov-18 16:31N 25°47' W 080°14'1 1.3
2017-Nov-18 16:00N 25°48' W 080°15'0 0.4
2017-Nov-18 15:31N 25°48' W 080°15'0 0.2
2017-Nov-18 15:01N 25°48' W 080°15'0 0.0
2017-Nov-18 04:11N 25°48' W 080°15'0 0.0
2017-Nov-18 04:00N 25°48' W 080°15'0 0.7
2017-Nov-18 03:30N 25°48' W 080°14'1 2.4
2017-Nov-18 03:00N 25°47' W 080°13'1 2.8
2017-Nov-18 02:30N 25°46' W 080°12'0 0.0
2017-Nov-18 02:00N 25°46' W 080°12'1 2.0
2017-Nov-18 01:30N 25°46' W 080°11'1 1.5
2017-Nov-18 01:00N 25°46' W 080°10'2 3.3
2017-Nov-18 00:30N 25°46' W 080°12'3 5.6
2017-Nov-18 00:00N 25°48' W 080°14'0 0.6
2017-Nov-17 23:30N 25°48' W 080°15'0 0.0
2017-Nov-17 23:00N 25°48' W 080°15'0 0.0
2017-Nov-17 22:30N 25°48' W 080°15'0 0.0
2017-Nov-17 22:00N 25°48' W 080°15'0 0.0
2017-Nov-17 21:30N 25°48' W 080°15'0 0.0
2017-Nov-17 21:00N 25°48' W 080°15'0 0.0
2017-Nov-17 20:30N 25°48' W 080°15'0 0.0
2017-Nov-17 20:00N 25°48' W 080°15'0 0.0
2017-Nov-17 19:30N 25°48' W 080°15'0 0.0
2017-Nov-17 19:00N 25°48' W 080°15'0 0.0
2017-Nov-17 18:30N 25°48' W 080°15'0 0.0
2017-Nov-17 18:00N 25°48' W 080°15'0 0.0
2017-Nov-17 17:30N 25°48' W 080°15'0 0.5
2017-Nov-17 17:00N 25°48' W 080°15'3 5.1
2017-Nov-17 16:30N 25°46' W 080°12'1 2.5
2017-Nov-17 16:00N 25°46' W 080°11'1 2.0
2017-Nov-17 15:30N 25°46' W 080°12'1 2.3
2017-Nov-17 15:00N 25°47' W 080°13'1 2.7
2017-Nov-17 14:30N 25°47' W 080°14'1 1.6
2017-Nov-17 14:00N 25°48' W 080°15'0 0.2
2017-Nov-17 13:30N 25°48' W 080°15'0 0.0
2017-Nov-17 13:00N 25°48' W 080°15'0 0.0
2017-Nov-16 12:26N 25°48' W 080°15'0 0.3
2017-Nov-16 12:00N 25°48' W 080°15'1 2.1
2017-Nov-16 11:30N 25°47' W 080°14'1 2.8
2017-Nov-16 11:00N 25°47' W 080°12'1 2.2
2017-Nov-16 10:30N 25°46' W 080°11'1 1.2
2017-Nov-16 10:00N 25°46' W 080°12'3 5.6
2017-Nov-16 09:30N 25°48' W 080°14'0 0.7
2017-Nov-16 09:00N 25°48' W 080°15'0 0.0
2017-Nov-16 08:30N 25°48' W 080°15'0 0.0
2017-Nov-16 08:00N 25°48' W 080°15'0 0.0
2017-Nov-16 07:30N 25°48' W 080°15'0 0.0
2017-Nov-16 07:00N 25°48' W 080°15'0 0.0
2017-Nov-16 06:30N 25°48' W 080°15'0 0.0
2017-Nov-16 06:00N 25°48' W 080°15'0 0.0
2017-Nov-16 05:30N 25°48' W 080°15'0 0.0
2017-Nov-16 05:00N 25°48' W 080°15'0 0.0
2017-Nov-16 04:30N 25°48' W 080°15'0 0.0
2017-Nov-16 04:00N 25°48' W 080°15'0 0.0
2017-Nov-16 03:30N 25°48' W 080°15'0 0.0
2017-Nov-16 03:00N 25°48' W 080°15'0 0.0
2017-Nov-16 02:30N 25°48' W 080°15'0 0.0
2017-Nov-16 02:00N 25°48' W 080°15'2 4.9
2017-Nov-16 01:30N 25°47' W 080°12'1 2.9
2017-Nov-16 01:00N 25°46' W 080°11'1 2.3
2017-Nov-16 00:30N 25°46' W 080°12'1 2.6
2017-Nov-16 00:00N 25°47' W 080°13'1 1.3
2017-Nov-15 23:30N 25°47' W 080°14'1 2.0
2017-Nov-15 23:00N 25°48' W 080°15'0 0.1
2017-Nov-15 22:30N 25°48' W 080°15'0 0.0
2017-Nov-15 22:00N 25°48' W 080°15'0 0.0
2017-Nov-15 21:30N 25°48' W 080°15'0 0.0
2017-Nov-15 21:00N 25°48' W 080°15'0 0.0
2017-Nov-15 20:30N 25°48' W 080°15'  
2017-Nov-12 12:37N 25°48' W 080°15'0 2.8
2017-Nov-12 12:30N 25°48' W 080°15'3 5.9
2017-Nov-12 12:00N 25°46' W 080°12'1 1.8
2017-Nov-12 11:30N 25°46' W 080°11'1 2.0
2017-Nov-12 11:00N 25°46' W 080°12'1 2.6
2017-Nov-12 10:30N 25°47' W 080°13'1 2.4
2017-Nov-12 10:00N 25°48' W 080°15'0 0.7
2017-Nov-12 09:30N 25°48' W 080°15'0 0.0
2017-Nov-12 09:00N 25°48' W 080°15'0 0.0
2017-Nov-12 08:30N 25°48' W 080°15'0 0.0
2017-Nov-12 08:00N 25°48' W 080°15'0 0.0
2017-Nov-12 07:30N 25°48' W 080°15'0 0.0
2017-Nov-12 07:00N 25°48' W 080°15'0 0.2
2017-Nov-12 06:30N 25°48' W 080°15'1 1.7
2017-Nov-12 06:00N 25°47' W 080°14'1 2.7
2017-Nov-12 05:30N 25°47' W 080°13'1 2.3
2017-Nov-12 05:00N 25°46' W 080°11'1 2.5
2017-Nov-12 04:30N 25°46' W 080°10'2 4.1
2017-Nov-12 04:00N 25°47' W 080°12'3 5.7
2017-Nov-12 03:30N 25°48' W 080°15'0 0.0
2017-Nov-12 03:00N 25°48' W 080°15'0 0.0
2017-Nov-12 02:30N 25°48' W 080°15'0 0.0
2017-Nov-11 23:22N 25°48' W 080°15'0 0.0
2017-Nov-11 23:00N 25°48' W 080°15'0 0.0
2017-Nov-11 22:30N 25°48' W 080°15'0 0.0
2017-Nov-11 22:00N 25°48' W 080°15'2 4.9
2017-Nov-11 21:30N 25°47' W 080°13'2 3.5
2017-Nov-11 21:00N 25°46' W 080°11'1 2.3
2017-Nov-11 20:30N 25°46' W 080°12'1 1.8
2017-Nov-11 20:00N 25°47' W 080°13'1 2.4
2017-Nov-11 19:30N 25°47' W 080°14'1 1.7
2017-Nov-11 19:00N 25°48' W 080°15'0 0.4
2017-Nov-11 18:30N 25°48' W 080°15'0 0.0
2017-Nov-11 05:32N 25°48' W 080°15'0 0.0
2017-Nov-11 05:30N 25°48' W 080°15'1 1.8
2017-Nov-11 05:00N 25°47' W 080°14'1 2.8
2017-Nov-11 04:30N 25°47' W 080°13'1 2.2
2017-Nov-11 04:00N 25°46' W 080°12'1 2.7
2017-Nov-11 03:30N 25°46' W 080°10'2 3.7
2017-Nov-11 03:00N 25°47' W 080°12'3 5.3
2017-Nov-11 02:30N 25°48' W 080°15'0 0.0
2017-Nov-11 02:00N 25°48' W 080°15'0 0.0
2017-Nov-10 22:00N 25°48' W 080°15'0 0.0
2017-Nov-10 21:30N 25°48' W 080°15'0 0.0
2017-Nov-10 21:00N 25°48' W 080°15'2 4.4
2017-Nov-10 20:30N 25°47' W 080°13'2 4.1
2017-Nov-10 20:00N 25°46' W 080°11'1 2.3
2017-Nov-10 19:30N 25°46' W 080°12'1 2.3
2017-Nov-10 19:00N 25°47' W 080°13'1 2.4
2017-Nov-10 18:30N 25°47' W 080°14'1 1.4
2017-Nov-10 18:00N 25°48' W 080°15'0 0.9
2017-Nov-10 17:30N 25°48' W 080°14'1 2.7
2017-Nov-10 17:00N 25°47' W 080°13'1 2.7
2017-Nov-10 16:30N 25°46' W 080°12'1 2.9
2017-Nov-10 16:00N 25°46' W 080°10'0 0.0
2017-Nov-10 15:30N 25°46' W 080°10'2 4.4
2017-Nov-10 15:00N 25°47' W 080°13'2 4.8
2017-Nov-10 14:30N 25°48' W 080°15'0 0.0
2017-Nov-10 14:00N 25°48' W 080°15'0 0.0
2017-Nov-10 13:30N 25°48' W 080°15'  
Track history (hours):
 
Tides and Currents Weather Stations Pressure Air Temp Water Temp Dewpoint Dewpoint Depression Visibility Wind Speed Wind Dir Waves Ship Positions

Sara

Owner: Miami River Towing Company Inc., Miami, FL. More information available from US FCC via Universal Licensing System and Coast Guard Vessel Documentation Center.

Last reported at 2017-Nov-19 17:29 UTC. Time now 2017-Nov-21 02:46 UTC.
Position N 25°48' W 080°15'.

Length 16 m; draft 2 m.

Type: Towing. MMSI: 367705810.

Date/timePositionNaut miles runAvg speedWind from/ knotsBaromVisibWave heightAir tempDewpointWater temp
2017-Nov-19 17:29N 25°48' W 080°15'2 4.3
2017-Nov-19 17:00N 25°47' W 080°13'2 3.8
2017-Nov-19 16:30N 25°46' W 080°11'1 2.3
2017-Nov-19 16:01N 25°46' W 080°12'1 2.8
2017-Nov-19 15:31N 25°47' W 080°13'1 2.6
2017-Nov-19 15:01N 25°48' W 080°14'0 0.8
2017-Nov-19 14:31N 25°48' W 080°15'0 0.1
2017-Nov-19 14:00N 25°48' W 080°15'0 0.0
2017-Nov-19 02:13N 25°48' W 080°15'0 0.6
2017-Nov-19 02:00N 25°48' W 080°15'1 1.5
2017-Nov-19 01:30N 25°47' W 080°14'1 2.8
2017-Nov-19 01:00N 25°47' W 080°13'1 2.3
2017-Nov-19 00:31N 25°46' W 080°11'1 2.1
2017-Nov-19 00:01N 25°46' W 080°10'2 4.7
2017-Nov-18 23:31N 25°47' W 080°13'2 3.9
2017-Nov-18 23:00N 25°48' W 080°15'0 1.0
2017-Nov-18 22:30N 25°48' W 080°14'1 2.8
2017-Nov-18 22:00N 25°47' W 080°13'1 2.5
2017-Nov-18 21:30N 25°46' W 080°12'1 2.5
2017-Nov-18 21:00N 25°46' W 080°11'0 0.2
2017-Nov-18 20:30N 25°46' W 080°10'0 0.0
2017-Nov-18 20:01N 25°46' W 080°10'0 0.0
2017-Nov-18 19:31N 25°46' W 080°10'0 0.0
2017-Nov-18 19:01N 25°46' W 080°10'0 0.0
2017-Nov-18 18:31N 25°46' W 080°10'0 0.5
2017-Nov-18 18:01N 25°46' W 080°11'1 2.2
2017-Nov-18 17:30N 25°46' W 080°12'1 2.5
2017-Nov-18 17:01N 25°47' W 080°13'1 2.6
2017-Nov-18 16:31N 25°47' W 080°14'1 1.3
2017-Nov-18 16:00N 25°48' W 080°15'0 0.4
2017-Nov-18 15:31N 25°48' W 080°15'0 0.2
2017-Nov-18 15:01N 25°48' W 080°15'0 0.0
2017-Nov-18 04:11N 25°48' W 080°15'0 0.0
2017-Nov-18 04:00N 25°48' W 080°15'0 0.7
2017-Nov-18 03:30N 25°48' W 080°14'1 2.4
2017-Nov-18 03:00N 25°47' W 080°13'1 2.8
2017-Nov-18 02:30N 25°46' W 080°12'0 0.0
2017-Nov-18 02:00N 25°46' W 080°12'1 2.0
2017-Nov-18 01:30N 25°46' W 080°11'1 1.5
2017-Nov-18 01:00N 25°46' W 080°10'2 3.3
2017-Nov-18 00:30N 25°46' W 080°12'3 5.6
2017-Nov-18 00:00N 25°48' W 080°14'0 0.6
2017-Nov-17 23:30N 25°48' W 080°15'0 0.0
2017-Nov-17 23:00N 25°48' W 080°15'0 0.0
2017-Nov-17 22:30N 25°48' W 080°15'0 0.0
2017-Nov-17 22:00N 25°48' W 080°15'0 0.0
2017-Nov-17 21:30N 25°48' W 080°15'0 0.0
2017-Nov-17 21:00N 25°48' W 080°15'0 0.0
2017-Nov-17 20:30N 25°48' W 080°15'0 0.0
2017-Nov-17 20:00N 25°48' W 080°15'0 0.0
2017-Nov-17 19:30N 25°48' W 080°15'0 0.0
2017-Nov-17 19:00N 25°48' W 080°15'0 0.0
2017-Nov-17 18:30N 25°48' W 080°15'0 0.0
2017-Nov-17 18:00N 25°48' W 080°15'0 0.0
2017-Nov-17 17:30N 25°48' W 080°15'0 0.5
2017-Nov-17 17:00N 25°48' W 080°15'3 5.1
2017-Nov-17 16:30N 25°46' W 080°12'1 2.5
2017-Nov-17 16:00N 25°46' W 080°11'1 2.0
2017-Nov-17 15:30N 25°46' W 080°12'1 2.3
2017-Nov-17 15:00N 25°47' W 080°13'1 2.7
2017-Nov-17 14:30N 25°47' W 080°14'1 1.6
2017-Nov-17 14:00N 25°48' W 080°15'0 0.2
2017-Nov-17 13:30N 25°48' W 080°15'0 0.0
2017-Nov-17 13:00N 25°48' W 080°15'0 0.0
2017-Nov-16 12:26N 25°48' W 080°15'0 0.3
2017-Nov-16 12:00N 25°48' W 080°15'1 2.1
2017-Nov-16 11:30N 25°47' W 080°14'1 2.8
2017-Nov-16 11:00N 25°47' W 080°12'1 2.2
2017-Nov-16 10:30N 25°46' W 080°11'1 1.2
2017-Nov-16 10:00N 25°46' W 080°12'3 5.6
2017-Nov-16 09:30N 25°48' W 080°14'0 0.7
2017-Nov-16 09:00N 25°48' W 080°15'0 0.0
2017-Nov-16 08:30N 25°48' W 080°15'0 0.0
2017-Nov-16 08:00N 25°48' W 080°15'0 0.0
2017-Nov-16 07:30N 25°48' W 080°15'0 0.0
2017-Nov-16 07:00N 25°48' W 080°15'0 0.0
2017-Nov-16 06:30N 25°48' W 080°15'0 0.0
2017-Nov-16 06:00N 25°48' W 080°15'0 0.0
2017-Nov-16 05:30N 25°48' W 080°15'0 0.0
2017-Nov-16 05:00N 25°48' W 080°15'0 0.0
2017-Nov-16 04:30N 25°48' W 080°15'0 0.0
2017-Nov-16 04:00N 25°48' W 080°15'0 0.0
2017-Nov-16 03:30N 25°48' W 080°15'0 0.0
2017-Nov-16 03:00N 25°48' W 080°15'0 0.0
2017-Nov-16 02:30N 25°48' W 080°15'0 0.0
2017-Nov-16 02:00N 25°48' W 080°15'2 4.9
2017-Nov-16 01:30N 25°47' W 080°12'1 2.9
2017-Nov-16 01:00N 25°46' W 080°11'1 2.3
2017-Nov-16 00:30N 25°46' W 080°12'1 2.6
2017-Nov-16 00:00N 25°47' W 080°13'1 1.3
2017-Nov-15 23:30N 25°47' W 080°14'1 2.0
2017-Nov-15 23:00N 25°48' W 080°15'0 0.1
2017-Nov-15 22:30N 25°48' W 080°15'0 0.0
2017-Nov-15 22:00N 25°48' W 080°15'0 0.0
2017-Nov-15 21:30N 25°48' W 080°15'0 0.0
2017-Nov-15 21:00N 25°48' W 080°15'0 0.0
2017-Nov-15 20:30N 25°48' W 080°15'  
2017-Nov-12 12:37N 25°48' W 080°15'0 2.8
2017-Nov-12 12:30N 25°48' W 080°15'3 5.9
2017-Nov-12 12:00N 25°46' W 080°12'1 1.8
2017-Nov-12 11:30N 25°46' W 080°11'1 2.0
2017-Nov-12 11:00N 25°46' W 080°12'1 2.6
2017-Nov-12 10:30N 25°47' W 080°13'1 2.4
2017-Nov-12 10:00N 25°48' W 080°15'0 0.7
2017-Nov-12 09:30N 25°48' W 080°15'0 0.0
2017-Nov-12 09:00N 25°48' W 080°15'0 0.0
2017-Nov-12 08:30N 25°48' W 080°15'0 0.0
2017-Nov-12 08:00N 25°48' W 080°15'0 0.0
2017-Nov-12 07:30N 25°48' W 080°15'0 0.0
2017-Nov-12 07:00N 25°48' W 080°15'0 0.2
2017-Nov-12 06:30N 25°48' W 080°15'1 1.7
2017-Nov-12 06:00N 25°47' W 080°14'1 2.7
2017-Nov-12 05:30N 25°47' W 080°13'1 2.3
2017-Nov-12 05:00N 25°46' W 080°11'1 2.5
2017-Nov-12 04:30N 25°46' W 080°10'2 4.1
2017-Nov-12 04:00N 25°47' W 080°12'3 5.7
2017-Nov-12 03:30N 25°48' W 080°15'0 0.0
2017-Nov-12 03:00N 25°48' W 080°15'0 0.0
2017-Nov-12 02:30N 25°48' W 080°15'0 0.0
2017-Nov-11 23:22N 25°48' W 080°15'0 0.0
2017-Nov-11 23:00N 25°48' W 080°15'0 0.0
2017-Nov-11 22:30N 25°48' W 080°15'0 0.0
2017-Nov-11 22:00N 25°48' W 080°15'2 4.9
2017-Nov-11 21:30N 25°47' W 080°13'2 3.5
2017-Nov-11 21:00N 25°46' W 080°11'1 2.3
2017-Nov-11 20:30N 25°46' W 080°12'1 1.8
2017-Nov-11 20:00N 25°47' W 080°13'1 2.4
2017-Nov-11 19:30N 25°47' W 080°14'1 1.7
2017-Nov-11 19:00N 25°48' W 080°15'0 0.4
2017-Nov-11 18:30N 25°48' W 080°15'0 0.0
2017-Nov-11 05:32N 25°48' W 080°15'0 0.0
2017-Nov-11 05:30N 25°48' W 080°15'1 1.8
2017-Nov-11 05:00N 25°47' W 080°14'1 2.8
2017-Nov-11 04:30N 25°47' W 080°13'1 2.2
2017-Nov-11 04:00N 25°46' W 080°12'1 2.7
2017-Nov-11 03:30N 25°46' W 080°10'2 3.7
2017-Nov-11 03:00N 25°47' W 080°12'3 5.3
2017-Nov-11 02:30N 25°48' W 080°15'0 0.0
2017-Nov-11 02:00N 25°48' W 080°15'0 0.0
2017-Nov-10 22:00N 25°48' W 080°15'0 0.0
2017-Nov-10 21:30N 25°48' W 080°15'0 0.0
2017-Nov-10 21:00N 25°48' W 080°15'2 4.4
2017-Nov-10 20:30N 25°47' W 080°13'2 4.1
2017-Nov-10 20:00N 25°46' W 080°11'1 2.3
2017-Nov-10 19:30N 25°46' W 080°12'1 2.3
2017-Nov-10 19:00N 25°47' W 080°13'1 2.4
2017-Nov-10 18:30N 25°47' W 080°14'1 1.4
2017-Nov-10 18:00N 25°48' W 080°15'0 0.9
2017-Nov-10 17:30N 25°48' W 080°14'1 2.7
2017-Nov-10 17:00N 25°47' W 080°13'1 2.7
2017-Nov-10 16:30N 25°46' W 080°12'1 2.9
2017-Nov-10 16:00N 25°46' W 080°10'0 0.0
2017-Nov-10 15:30N 25°46' W 080°10'2 4.4
2017-Nov-10 15:00N 25°47' W 080°13'2 4.8
2017-Nov-10 14:30N 25°48' W 080°15'0 0.0
2017-Nov-10 14:00N 25°48' W 080°15'0 0.0
2017-Nov-10 13:30N 25°48' W 080°15'  

Dump ship's entire track history